sensor_id;sensor_type;location;lat;lon;timestamp;temperature;humidity
51007;DHT22;37034;47.886;-3.904;2023-08-24T00:01:32;25.80;91.90
51007;DHT22;37034;47.886;-3.904;2023-08-24T00:03:58;25.80;92.20
51007;DHT22;37034;47.886;-3.904;2023-08-24T00:06:24;25.80;91.90
51007;DHT22;37034;47.886;-3.904;2023-08-24T00:08:50;25.80;92.00
51007;DHT22;37034;47.886;-3.904;2023-08-24T00:11:15;25.80;92.10
51007;DHT22;37034;47.886;-3.904;2023-08-24T00:13:42;25.80;91.90
51007;DHT22;37034;47.886;-3.904;2023-08-24T00:16:14;25.70;92.10
51007;DHT22;37034;47.886;-3.904;2023-08-24T00:18:40;25.70;92.20
51007;DHT22;37034;47.886;-3.904;2023-08-24T00:21:06;25.70;92.20
51007;DHT22;37034;47.886;-3.904;2023-08-24T00:23:33;25.70;92.30
51007;DHT22;37034;47.886;-3.904;2023-08-24T00:25:59;25.70;92.30
51007;DHT22;37034;47.886;-3.904;2023-08-24T00:28:25;25.70;92.30
51007;DHT22;37034;47.886;-3.904;2023-08-24T00:30:51;25.70;92.30
51007;DHT22;37034;47.886;-3.904;2023-08-24T00:33:17;25.70;92.30
51007;DHT22;37034;47.886;-3.904;2023-08-24T00:35:42;25.70;92.30
51007;DHT22;37034;47.886;-3.904;2023-08-24T00:38:08;25.70;92.40
51007;DHT22;37034;47.886;-3.904;2023-08-24T00:40:34;25.70;92.50
51007;DHT22;37034;47.886;-3.904;2023-08-24T00:43:00;25.70;92.40
51007;DHT22;37034;47.886;-3.904;2023-08-24T00:45:26;25.60;92.50
51007;DHT22;37034;47.886;-3.904;2023-08-24T00:47:52;25.70;92.50
51007;DHT22;37034;47.886;-3.904;2023-08-24T00:50:18;25.60;92.50
51007;DHT22;37034;47.886;-3.904;2023-08-24T00:52:45;25.60;92.40
51007;DHT22;37034;47.886;-3.904;2023-08-24T00:55:13;25.70;92.50
51007;DHT22;37034;47.886;-3.904;2023-08-24T00:57:40;25.60;92.50
51007;DHT22;37034;47.886;-3.904;2023-08-24T01:00:07;25.60;92.50
51007;DHT22;37034;47.886;-3.904;2023-08-24T01:02:37;25.60;92.50
51007;DHT22;37034;47.886;-3.904;2023-08-24T01:05:03;25.60;92.50
51007;DHT22;37034;47.886;-3.904;2023-08-24T01:07:37;25.60;92.50
51007;DHT22;37034;47.886;-3.904;2023-08-24T01:10:05;25.60;92.60
51007;DHT22;37034;47.886;-3.904;2023-08-24T01:17:30;25.60;92.60
51007;DHT22;37034;47.886;-3.904;2023-08-24T01:19:58;25.60;92.70
51007;DHT22;37034;47.886;-3.904;2023-08-24T01:25:06;25.60;92.80
51007;DHT22;37034;47.886;-3.904;2023-08-24T01:27:34;25.50;92.80
51007;DHT22;37034;47.886;-3.904;2023-08-24T01:30:01;25.60;92.70
51007;DHT22;37034;47.886;-3.904;2023-08-24T01:32:31;25.60;92.70
51007;DHT22;37034;47.886;-3.904;2023-08-24T01:34:58;25.60;92.60
51007;DHT22;37034;47.886;-3.904;2023-08-24T01:37:23;25.60;92.60
51007;DHT22;37034;47.886;-3.904;2023-08-24T01:40:15;25.50;92.60
51007;DHT22;37034;47.886;-3.904;2023-08-24T01:42:54;25.40;92.90
51007;DHT22;37034;47.886;-3.904;2023-08-24T01:45:22;25.40;93.20
51007;DHT22;37034;47.886;-3.904;2023-08-24T01:47:50;25.30;93.30
51007;DHT22;37034;47.886;-3.904;2023-08-24T01:50:17;25.20;93.40
51007;DHT22;37034;47.886;-3.904;2023-08-24T01:52:43;25.10;93.40
51007;DHT22;37034;47.886;-3.904;2023-08-24T01:55:10;24.90;93.50
51007;DHT22;37034;47.886;-3.904;2023-08-24T01:57:35;24.80;93.60
51007;DHT22;37034;47.886;-3.904;2023-08-24T02:00:01;24.70;93.60
51007;DHT22;37034;47.886;-3.904;2023-08-24T02:02:28;24.60;93.70
51007;DHT22;37034;47.886;-3.904;2023-08-24T02:04:53;24.50;93.80
51007;DHT22;37034;47.886;-3.904;2023-08-24T02:07:19;24.40;93.80
51007;DHT22;37034;47.886;-3.904;2023-08-24T02:09:44;24.40;93.90
51007;DHT22;37034;47.886;-3.904;2023-08-24T02:12:10;24.40;94.00
51007;DHT22;37034;47.886;-3.904;2023-08-24T02:14:36;24.40;94.00
51007;DHT22;37034;47.886;-3.904;2023-08-24T02:17:01;24.40;94.20
51007;DHT22;37034;47.886;-3.904;2023-08-24T02:19:27;24.50;94.00
51007;DHT22;37034;47.886;-3.904;2023-08-24T02:21:52;24.50;94.10
51007;DHT22;37034;47.886;-3.904;2023-08-24T02:24:18;24.50;94.20
51007;DHT22;37034;47.886;-3.904;2023-08-24T02:26:44;24.50;94.10
51007;DHT22;37034;47.886;-3.904;2023-08-24T02:29:09;24.60;94.30
51007;DHT22;37034;47.886;-3.904;2023-08-24T02:31:35;24.60;94.20
51007;DHT22;37034;47.886;-3.904;2023-08-24T02:34:01;24.60;94.20
51007;DHT22;37034;47.886;-3.904;2023-08-24T02:36:26;24.70;94.20
51007;DHT22;37034;47.886;-3.904;2023-08-24T02:38:53;24.70;94.10
51007;DHT22;37034;47.886;-3.904;2023-08-24T02:41:18;24.60;94.10
51007;DHT22;37034;47.886;-3.904;2023-08-24T02:43:44;24.50;94.20
51007;DHT22;37034;47.886;-3.904;2023-08-24T02:46:10;24.60;94.30
51007;DHT22;37034;47.886;-3.904;2023-08-24T02:48:35;24.60;94.20
51007;DHT22;37034;47.886;-3.904;2023-08-24T02:51:03;24.60;94.50
51007;DHT22;37034;47.886;-3.904;2023-08-24T02:53:29;24.60;94.40
51007;DHT22;37034;47.886;-3.904;2023-08-24T02:55:55;24.60;94.50
51007;DHT22;37034;47.886;-3.904;2023-08-24T02:58:21;24.30;94.60
51007;DHT22;37034;47.886;-3.904;2023-08-24T03:00:47;24.30;94.70
51007;DHT22;37034;47.886;-3.904;2023-08-24T03:03:16;24.30;94.90
51007;DHT22;37034;47.886;-3.904;2023-08-24T03:05:58;24.30;94.70
51007;DHT22;37034;47.886;-3.904;2023-08-24T03:08:24;24.10;94.90
51007;DHT22;37034;47.886;-3.904;2023-08-24T03:10:50;24.20;94.70
51007;DHT22;37034;47.886;-3.904;2023-08-24T03:13:16;24.20;94.60
51007;DHT22;37034;47.886;-3.904;2023-08-24T03:15:42;24.20;94.80
51007;DHT22;37034;47.886;-3.904;2023-08-24T03:18:11;24.20;94.70
51007;DHT22;37034;47.886;-3.904;2023-08-24T03:20:36;24.20;94.70
51007;DHT22;37034;47.886;-3.904;2023-08-24T03:23:02;24.10;94.80
51007;DHT22;37034;47.886;-3.904;2023-08-24T03:25:28;24.10;94.90
51007;DHT22;37034;47.886;-3.904;2023-08-24T03:27:54;23.80;95.40
51007;DHT22;37034;47.886;-3.904;2023-08-24T03:30:20;23.90;95.30
51007;DHT22;37034;47.886;-3.904;2023-08-24T03:32:48;23.90;95.50
51007;DHT22;37034;47.886;-3.904;2023-08-24T03:35:13;24.00;95.30
51007;DHT22;37034;47.886;-3.904;2023-08-24T03:37:40;23.90;95.20
51007;DHT22;37034;47.886;-3.904;2023-08-24T03:40:06;24.00;95.30
51007;DHT22;37034;47.886;-3.904;2023-08-24T03:42:32;24.00;95.20
51007;DHT22;37034;47.886;-3.904;2023-08-24T03:44:59;24.10;95.50
51007;DHT22;37034;47.886;-3.904;2023-08-24T03:47:25;24.10;95.10
51007;DHT22;37034;47.886;-3.904;2023-08-24T03:49:50;24.20;95.20
51007;DHT22;37034;47.886;-3.904;2023-08-24T03:52:16;24.20;95.10
51007;DHT22;37034;47.886;-3.904;2023-08-24T03:54:42;24.20;95.20
51007;DHT22;37034;47.886;-3.904;2023-08-24T03:57:08;24.20;95.10
51007;DHT22;37034;47.886;-3.904;2023-08-24T03:59:33;24.20;95.20
51007;DHT22;37034;47.886;-3.904;2023-08-24T04:02:00;24.20;95.40
51007;DHT22;37034;47.886;-3.904;2023-08-24T04:04:27;24.10;95.30
51007;DHT22;37034;47.886;-3.904;2023-08-24T04:06:53;24.20;95.30
51007;DHT22;37034;47.886;-3.904;2023-08-24T04:09:19;24.10;95.50
51007;DHT22;37034;47.886;-3.904;2023-08-24T04:11:44;24.10;95.50
51007;DHT22;37034;47.886;-3.904;2023-08-24T04:14:10;24.20;95.50
51007;DHT22;37034;47.886;-3.904;2023-08-24T04:16:36;24.10;95.50
51007;DHT22;37034;47.886;-3.904;2023-08-24T04:19:01;24.10;95.50
51007;DHT22;37034;47.886;-3.904;2023-08-24T04:21:27;24.10;95.50
51007;DHT22;37034;47.886;-3.904;2023-08-24T04:23:53;24.20;95.40
51007;DHT22;37034;47.886;-3.904;2023-08-24T04:26:18;24.30;95.40
51007;DHT22;37034;47.886;-3.904;2023-08-24T04:28:44;24.20;95.40
51007;DHT22;37034;47.886;-3.904;2023-08-24T04:31:10;24.30;95.30
51007;DHT22;37034;47.886;-3.904;2023-08-24T04:33:35;24.30;95.30
51007;DHT22;37034;47.886;-3.904;2023-08-24T04:36:02;24.40;95.40
51007;DHT22;37034;47.886;-3.904;2023-08-24T04:38:31;24.40;95.20
51007;DHT22;37034;47.886;-3.904;2023-08-24T04:40:56;24.40;95.20
51007;DHT22;37034;47.886;-3.904;2023-08-24T04:43:24;24.50;95.20
51007;DHT22;37034;47.886;-3.904;2023-08-24T04:45:51;24.50;95.10
51007;DHT22;37034;47.886;-3.904;2023-08-24T04:48:20;24.50;95.10
51007;DHT22;37034;47.886;-3.904;2023-08-24T04:50:46;24.40;95.10
51007;DHT22;37034;47.886;-3.904;2023-08-24T04:53:14;24.40;95.10
51007;DHT22;37034;47.886;-3.904;2023-08-24T04:55:41;24.50;95.10
51007;DHT22;37034;47.886;-3.904;2023-08-24T04:58:07;24.50;95.10
51007;DHT22;37034;47.886;-3.904;2023-08-24T05:00:33;24.60;95.10
51007;DHT22;37034;47.886;-3.904;2023-08-24T05:02:59;24.60;94.90
51007;DHT22;37034;47.886;-3.904;2023-08-24T05:05:24;24.60;95.00
51007;DHT22;37034;47.886;-3.904;2023-08-24T05:07:50;24.60;95.00
51007;DHT22;37034;47.886;-3.904;2023-08-24T05:10:16;24.60;94.90
51007;DHT22;37034;47.886;-3.904;2023-08-24T05:12:41;24.60;94.90
51007;DHT22;37034;47.886;-3.904;2023-08-24T05:15:07;24.70;94.90
51007;DHT22;37034;47.886;-3.904;2023-08-24T05:17:33;24.70;94.90
51007;DHT22;37034;47.886;-3.904;2023-08-24T05:19:59;24.60;95.00
51007;DHT22;37034;47.886;-3.904;2023-08-24T05:22:25;24.70;95.00
51007;DHT22;37034;47.886;-3.904;2023-08-24T05:24:51;24.60;95.10
51007;DHT22;37034;47.886;-3.904;2023-08-24T05:27:17;24.60;95.10
51007;DHT22;37034;47.886;-3.904;2023-08-24T05:29:43;24.60;95.10
51007;DHT22;37034;47.886;-3.904;2023-08-24T05:32:08;24.60;95.20
51007;DHT22;37034;47.886;-3.904;2023-08-24T05:34:34;24.50;95.50
51007;DHT22;37034;47.886;-3.904;2023-08-24T05:37:00;24.50;95.20
51007;DHT22;37034;47.886;-3.904;2023-08-24T05:39:25;24.40;95.20
51007;DHT22;37034;47.886;-3.904;2023-08-24T05:41:52;24.30;95.50
51007;DHT22;37034;47.886;-3.904;2023-08-24T05:44:20;24.30;95.50
51007;DHT22;37034;47.886;-3.904;2023-08-24T05:46:47;24.40;95.50
51007;DHT22;37034;47.886;-3.904;2023-08-24T05:49:13;24.30;95.50
51007;DHT22;37034;47.886;-3.904;2023-08-24T05:51:38;24.40;95.40
51007;DHT22;37034;47.886;-3.904;2023-08-24T05:54:04;24.50;95.50
51007;DHT22;37034;47.886;-3.904;2023-08-24T05:56:30;24.60;95.30
51007;DHT22;37034;47.886;-3.904;2023-08-24T05:58:58;24.60;95.30
51007;DHT22;37034;47.886;-3.904;2023-08-24T06:01:24;24.60;95.20
51007;DHT22;37034;47.886;-3.904;2023-08-24T06:03:50;24.60;95.20
51007;DHT22;37034;47.886;-3.904;2023-08-24T06:06:15;24.60;95.30
51007;DHT22;37034;47.886;-3.904;2023-08-24T06:08:41;24.70;95.10
51007;DHT22;37034;47.886;-3.904;2023-08-24T06:11:07;24.60;95.10
51007;DHT22;37034;47.886;-3.904;2023-08-24T06:13:33;24.60;95.20
51007;DHT22;37034;47.886;-3.904;2023-08-24T06:15:58;24.60;95.20
51007;DHT22;37034;47.886;-3.904;2023-08-24T06:18:24;24.60;95.20
51007;DHT22;37034;47.886;-3.904;2023-08-24T06:20:50;24.60;95.30
51007;DHT22;37034;47.886;-3.904;2023-08-24T06:23:19;24.60;95.40
51007;DHT22;37034;47.886;-3.904;2023-08-24T06:25:45;24.60;95.30
51007;DHT22;37034;47.886;-3.904;2023-08-24T06:28:11;24.70;95.40
51007;DHT22;37034;47.886;-3.904;2023-08-24T06:30:41;24.70;95.40
51007;DHT22;37034;47.886;-3.904;2023-08-24T06:33:08;24.70;95.50
51007;DHT22;37034;47.886;-3.904;2023-08-24T06:35:34;24.80;95.50
51007;DHT22;37034;47.886;-3.904;2023-08-24T06:38:00;24.80;95.40
51007;DHT22;37034;47.886;-3.904;2023-08-24T06:40:26;24.80;95.40
51007;DHT22;37034;47.886;-3.904;2023-08-24T06:42:51;24.90;95.40
51007;DHT22;37034;47.886;-3.904;2023-08-24T06:45:17;25.00;95.20
51007;DHT22;37034;47.886;-3.904;2023-08-24T06:47:44;24.90;95.20
51007;DHT22;37034;47.886;-3.904;2023-08-24T06:50:10;24.90;95.30
51007;DHT22;37034;47.886;-3.904;2023-08-24T06:52:36;24.90;95.30
51007;DHT22;37034;47.886;-3.904;2023-08-24T06:55:02;24.90;95.30
51007;DHT22;37034;47.886;-3.904;2023-08-24T06:57:29;25.00;95.30
51007;DHT22;37034;47.886;-3.904;2023-08-24T06:59:54;25.00;95.40
51007;DHT22;37034;47.886;-3.904;2023-08-24T07:02:20;25.10;95.40
51007;DHT22;37034;47.886;-3.904;2023-08-24T07:04:46;25.10;95.30
51007;DHT22;37034;47.886;-3.904;2023-08-24T07:07:12;25.10;95.30
51007;DHT22;37034;47.886;-3.904;2023-08-24T07:09:38;25.20;95.30
51007;DHT22;37034;47.886;-3.904;2023-08-24T07:12:04;25.20;95.40
51007;DHT22;37034;47.886;-3.904;2023-08-24T07:14:33;25.30;95.60
51007;DHT22;37034;47.886;-3.904;2023-08-24T07:16:58;25.30;95.30
51007;DHT22;37034;47.886;-3.904;2023-08-24T07:19:24;25.40;95.30
51007;DHT22;37034;47.886;-3.904;2023-08-24T07:21:50;25.50;95.40
51007;DHT22;37034;47.886;-3.904;2023-08-24T07:24:16;25.50;95.40
51007;DHT22;37034;47.886;-3.904;2023-08-24T07:26:44;25.60;95.40
51007;DHT22;37034;47.886;-3.904;2023-08-24T07:29:11;25.70;95.40
51007;DHT22;37034;47.886;-3.904;2023-08-24T07:31:36;25.70;95.30
51007;DHT22;37034;47.886;-3.904;2023-08-24T07:34:03;25.70;95.20
51007;DHT22;37034;47.886;-3.904;2023-08-24T07:36:29;25.70;95.30
51007;DHT22;37034;47.886;-3.904;2023-08-24T07:38:56;25.80;95.30
51007;DHT22;37034;47.886;-3.904;2023-08-24T07:41:21;25.90;95.20
51007;DHT22;37034;47.886;-3.904;2023-08-24T07:43:47;26.00;95.20
51007;DHT22;37034;47.886;-3.904;2023-08-24T07:46:13;25.90;95.10
51007;DHT22;37034;47.886;-3.904;2023-08-24T07:48:39;25.90;95.00
51007;DHT22;37034;47.886;-3.904;2023-08-24T07:51:05;25.90;95.20
51007;DHT22;37034;47.886;-3.904;2023-08-24T07:53:31;25.80;95.10
51007;DHT22;37034;47.886;-3.904;2023-08-24T07:55:59;25.90;95.10
51007;DHT22;37034;47.886;-3.904;2023-08-24T07:58:25;26.00;95.20
51007;DHT22;37034;47.886;-3.904;2023-08-24T08:00:52;26.00;95.10
51007;DHT22;37034;47.886;-3.904;2023-08-24T08:03:18;26.00;95.20
51007;DHT22;37034;47.886;-3.904;2023-08-24T08:05:45;26.10;95.20
51007;DHT22;37034;47.886;-3.904;2023-08-24T08:08:11;26.10;95.20
51007;DHT22;37034;47.886;-3.904;2023-08-24T08:10:36;26.20;95.20
51007;DHT22;37034;47.886;-3.904;2023-08-24T08:13:02;26.20;95.00
51007;DHT22;37034;47.886;-3.904;2023-08-24T08:15:27;26.30;95.00
51007;DHT22;37034;47.886;-3.904;2023-08-24T08:17:53;26.30;95.00
51007;DHT22;37034;47.886;-3.904;2023-08-24T08:20:19;26.30;94.80
51007;DHT22;37034;47.886;-3.904;2023-08-24T08:22:44;26.30;94.80
51007;DHT22;37034;47.886;-3.904;2023-08-24T08:25:10;26.30;94.90
51007;DHT22;37034;47.886;-3.904;2023-08-24T08:27:37;26.20;94.70
51007;DHT22;37034;47.886;-3.904;2023-08-24T08:30:04;26.20;95.20
51007;DHT22;37034;47.886;-3.904;2023-08-24T08:32:30;26.10;94.90
51007;DHT22;37034;47.886;-3.904;2023-08-24T08:34:56;26.10;95.10
51007;DHT22;37034;47.886;-3.904;2023-08-24T08:37:25;26.20;95.00
51007;DHT22;37034;47.886;-3.904;2023-08-24T08:39:51;26.20;95.00
51007;DHT22;37034;47.886;-3.904;2023-08-24T08:42:17;26.20;95.00
51007;DHT22;37034;47.886;-3.904;2023-08-24T08:44:44;26.20;95.20
51007;DHT22;37034;47.886;-3.904;2023-08-24T08:47:11;26.20;95.10
51007;DHT22;37034;47.886;-3.904;2023-08-24T08:49:44;26.30;95.00
51007;DHT22;37034;47.886;-3.904;2023-08-24T08:52:10;26.20;95.10
51007;DHT22;37034;47.886;-3.904;2023-08-24T08:54:37;26.30;95.00
51007;DHT22;37034;47.886;-3.904;2023-08-24T08:57:03;26.30;95.00
51007;DHT22;37034;47.886;-3.904;2023-08-24T08:59:30;26.40;95.10
51007;DHT22;37034;47.886;-3.904;2023-08-24T09:01:57;26.40;94.80
51007;DHT22;37034;47.886;-3.904;2023-08-24T09:04:31;26.30;95.00
51007;DHT22;37034;47.886;-3.904;2023-08-24T09:06:57;26.50;95.10
51007;DHT22;37034;47.886;-3.904;2023-08-24T09:09:24;26.40;95.00
51007;DHT22;37034;47.886;-3.904;2023-08-24T09:11:50;26.40;95.20
51007;DHT22;37034;47.886;-3.904;2023-08-24T09:14:16;26.50;95.20
51007;DHT22;37034;47.886;-3.904;2023-08-24T09:16:42;26.60;95.20
51007;DHT22;37034;47.886;-3.904;2023-08-24T09:19:10;26.50;95.00
51007;DHT22;37034;47.886;-3.904;2023-08-24T09:21:38;26.60;95.20
51007;DHT22;37034;47.886;-3.904;2023-08-24T09:24:05;26.70;95.60
51007;DHT22;37034;47.886;-3.904;2023-08-24T09:26:35;27.00;95.40
51007;DHT22;37034;47.886;-3.904;2023-08-24T09:29:11;27.10;94.50
51007;DHT22;37034;47.886;-3.904;2023-08-24T09:31:38;27.10;95.30
51007;DHT22;37034;47.886;-3.904;2023-08-24T09:34:05;27.40;95.40
51007;DHT22;37034;47.886;-3.904;2023-08-24T09:36:35;27.60;95.30
51007;DHT22;37034;47.886;-3.904;2023-08-24T09:39:02;27.60;95.10
51007;DHT22;37034;47.886;-3.904;2023-08-24T09:41:48;27.70;95.20
51007;DHT22;37034;47.886;-3.904;2023-08-24T09:44:14;27.80;94.30
51007;DHT22;37034;47.886;-3.904;2023-08-24T09:46:40;27.80;95.10
51007;DHT22;37034;47.886;-3.904;2023-08-24T09:49:10;28.00;94.90
51007;DHT22;37034;47.886;-3.904;2023-08-24T09:51:38;28.10;94.50
51007;DHT22;37034;47.886;-3.904;2023-08-24T09:54:09;28.30;94.60
51007;DHT22;37034;47.886;-3.904;2023-08-24T09:56:41;28.40;94.30
51007;DHT22;37034;47.886;-3.904;2023-08-24T09:59:11;28.60;94.50
51007;DHT22;37034;47.886;-3.904;2023-08-24T10:01:44;28.80;94.50
51007;DHT22;37034;47.886;-3.904;2023-08-24T10:04:12;28.90;94.10
51007;DHT22;37034;47.886;-3.904;2023-08-24T10:06:39;29.00;94.10
51007;DHT22;37034;47.886;-3.904;2023-08-24T10:09:18;29.00;93.80
51007;DHT22;37034;47.886;-3.904;2023-08-24T10:11:51;29.20;93.70
51007;DHT22;37034;47.886;-3.904;2023-08-24T10:14:28;29.30;93.60
51007;DHT22;37034;47.886;-3.904;2023-08-24T10:16:55;29.40;93.30
51007;DHT22;37034;47.886;-3.904;2023-08-24T10:19:22;29.40;93.50
51007;DHT22;37034;47.886;-3.904;2023-08-24T10:21:49;29.50;93.30
51007;DHT22;37034;47.886;-3.904;2023-08-24T10:24:16;29.50;92.70
51007;DHT22;37034;47.886;-3.904;2023-08-24T10:26:42;29.50;93.10
51007;DHT22;37034;47.886;-3.904;2023-08-24T10:29:08;29.70;93.10
51007;DHT22;37034;47.886;-3.904;2023-08-24T10:31:36;29.50;92.90
51007;DHT22;37034;47.886;-3.904;2023-08-24T10:34:02;29.70;93.20
51007;DHT22;37034;47.886;-3.904;2023-08-24T10:36:28;29.80;92.70
51007;DHT22;37034;47.886;-3.904;2023-08-24T10:39:02;29.90;92.90
51007;DHT22;37034;47.886;-3.904;2023-08-24T10:41:49;30.00;92.80
51007;DHT22;37034;47.886;-3.904;2023-08-24T10:44:34;30.20;92.50
51007;DHT22;37034;47.886;-3.904;2023-08-24T10:47:20;30.40;92.60
51007;DHT22;37034;47.886;-3.904;2023-08-24T10:54:54;30.60;92.60
51007;DHT22;37034;47.886;-3.904;2023-08-24T10:57:26;30.80;92.70
51007;DHT22;37034;47.886;-3.904;2023-08-24T11:00:06;30.90;92.30
51007;DHT22;37034;47.886;-3.904;2023-08-24T11:02:47;31.00;91.80
51007;DHT22;37034;47.886;-3.904;2023-08-24T11:05:19;31.10;91.70
51007;DHT22;37034;47.886;-3.904;2023-08-24T11:07:53;31.10;91.80
51007;DHT22;37034;47.886;-3.904;2023-08-24T11:10:21;31.00;91.30
51007;DHT22;37034;47.886;-3.904;2023-08-24T11:13:07;31.00;91.30
51007;DHT22;37034;47.886;-3.904;2023-08-24T11:15:38;31.00;91.50
51007;DHT22;37034;47.886;-3.904;2023-08-24T11:20:50;31.10;91.20
51007;DHT22;37034;47.886;-3.904;2023-08-24T11:23:17;31.10;91.10
51007;DHT22;37034;47.886;-3.904;2023-08-24T11:25:43;31.10;91.10
51007;DHT22;37034;47.886;-3.904;2023-08-24T11:28:09;31.10;91.20
51007;DHT22;37034;47.886;-3.904;2023-08-24T11:30:35;31.10;91.00
51007;DHT22;37034;47.886;-3.904;2023-08-24T11:33:01;31.10;91.10
51007;DHT22;37034;47.886;-3.904;2023-08-24T11:35:28;31.20;90.50
51007;DHT22;37034;47.886;-3.904;2023-08-24T11:37:54;31.20;91.20
51007;DHT22;37034;47.886;-3.904;2023-08-24T11:40:19;31.50;91.10
51007;DHT22;37034;47.886;-3.904;2023-08-24T11:42:46;31.70;90.60
51007;DHT22;37034;47.886;-3.904;2023-08-24T11:45:12;31.80;90.30
51007;DHT22;37034;47.886;-3.904;2023-08-24T11:47:40;31.80;90.50
51007;DHT22;37034;47.886;-3.904;2023-08-24T11:50:07;31.90;90.70
51007;DHT22;37034;47.886;-3.904;2023-08-24T11:52:39;32.10;91.00
51007;DHT22;37034;47.886;-3.904;2023-08-24T11:55:05;32.30;90.80
51007;DHT22;37034;47.886;-3.904;2023-08-24T11:57:36;32.50;90.70
51007;DHT22;37034;47.886;-3.904;2023-08-24T12:00:03;32.60;90.40
51007;DHT22;37034;47.886;-3.904;2023-08-24T12:02:33;32.50;90.00
51007;DHT22;37034;47.886;-3.904;2023-08-24T12:04:59;32.30;90.00
51007;DHT22;37034;47.886;-3.904;2023-08-24T12:07:25;32.20;90.30
51007;DHT22;37034;47.886;-3.904;2023-08-24T12:09:52;32.20;90.40
51007;DHT22;37034;47.886;-3.904;2023-08-24T12:12:20;32.10;89.40
51007;DHT22;37034;47.886;-3.904;2023-08-24T12:14:49;31.90;90.20
51007;DHT22;37034;47.886;-3.904;2023-08-24T12:17:16;31.80;90.10
51007;DHT22;37034;47.886;-3.904;2023-08-24T12:19:56;31.80;90.60
51007;DHT22;37034;47.886;-3.904;2023-08-24T12:22:22;31.90;90.40
51007;DHT22;37034;47.886;-3.904;2023-08-24T12:24:48;31.60;90.10
51007;DHT22;37034;47.886;-3.904;2023-08-24T12:27:24;31.60;90.50
51007;DHT22;37034;47.886;-3.904;2023-08-24T12:29:49;31.70;90.30
51007;DHT22;37034;47.886;-3.904;2023-08-24T12:32:16;31.70;90.40
51007;DHT22;37034;47.886;-3.904;2023-08-24T12:34:45;31.80;90.30
51007;DHT22;37034;47.886;-3.904;2023-08-24T12:37:11;31.90;90.40
51007;DHT22;37034;47.886;-3.904;2023-08-24T12:39:39;32.00;90.30
51007;DHT22;37034;47.886;-3.904;2023-08-24T12:42:05;32.00;90.30
51007;DHT22;37034;47.886;-3.904;2023-08-24T12:44:30;32.10;90.30
51007;DHT22;37034;47.886;-3.904;2023-08-24T12:46:56;32.20;90.40
51007;DHT22;37034;47.886;-3.904;2023-08-24T12:49:22;32.20;90.30
51007;DHT22;37034;47.886;-3.904;2023-08-24T12:51:47;32.30;90.30
51007;DHT22;37034;47.886;-3.904;2023-08-24T12:54:13;32.30;90.00
51007;DHT22;37034;47.886;-3.904;2023-08-24T12:56:42;32.20;89.80
51007;DHT22;37034;47.886;-3.904;2023-08-24T12:59:08;32.20;90.00
51007;DHT22;37034;47.886;-3.904;2023-08-24T13:01:34;32.10;89.40
51007;DHT22;37034;47.886;-3.904;2023-08-24T13:04:00;32.00;89.40
51007;DHT22;37034;47.886;-3.904;2023-08-24T13:06:26;32.00;89.50
51007;DHT22;37034;47.886;-3.904;2023-08-24T13:08:53;31.90;89.60
51007;DHT22;37034;47.886;-3.904;2023-08-24T13:11:18;31.90;89.00
51007;DHT22;37034;47.886;-3.904;2023-08-24T13:13:44;31.70;89.10
51007;DHT22;37034;47.886;-3.904;2023-08-24T13:16:11;31.50;88.20
51007;DHT22;37034;47.886;-3.904;2023-08-24T13:18:36;31.10;89.40
51007;DHT22;37034;47.886;-3.904;2023-08-24T13:21:02;31.10;89.30
51007;DHT22;37034;47.886;-3.904;2023-08-24T13:23:27;31.10;89.70
51007;DHT22;37034;47.886;-3.904;2023-08-24T13:25:53;31.20;89.50
51007;DHT22;37034;47.886;-3.904;2023-08-24T13:28:21;31.10;88.40
51007;DHT22;37034;47.886;-3.904;2023-08-24T13:30:46;31.00;89.10
51007;DHT22;37034;47.886;-3.904;2023-08-24T13:33:13;31.10;90.30
51007;DHT22;37034;47.886;-3.904;2023-08-24T13:35:40;31.30;90.10
51007;DHT22;37034;47.886;-3.904;2023-08-24T13:38:06;31.10;89.50
51007;DHT22;37034;47.886;-3.904;2023-08-24T13:40:32;31.30;89.90
51007;DHT22;37034;47.886;-3.904;2023-08-24T13:42:57;31.30;89.10
51007;DHT22;37034;47.886;-3.904;2023-08-24T13:45:23;31.10;88.30
51007;DHT22;37034;47.886;-3.904;2023-08-24T13:47:49;31.20;88.50
51007;DHT22;37034;47.886;-3.904;2023-08-24T13:50:14;31.20;88.10
51007;DHT22;37034;47.886;-3.904;2023-08-24T13:52:40;31.20;88.30
51007;DHT22;37034;47.886;-3.904;2023-08-24T13:55:06;31.30;88.20
51007;DHT22;37034;47.886;-3.904;2023-08-24T13:57:31;31.20;87.40
51007;DHT22;37034;47.886;-3.904;2023-08-24T13:59:57;31.00;86.90
51007;DHT22;37034;47.886;-3.904;2023-08-24T14:02:23;30.90;87.10
51007;DHT22;37034;47.886;-3.904;2023-08-24T14:04:48;31.00;88.30
51007;DHT22;37034;47.886;-3.904;2023-08-24T14:07:14;31.10;87.50
51007;DHT22;37034;47.886;-3.904;2023-08-24T14:09:39;31.20;87.70
51007;DHT22;37034;47.886;-3.904;2023-08-24T14:12:05;31.20;87.40
51007;DHT22;37034;47.886;-3.904;2023-08-24T14:14:31;31.40;86.90
51007;DHT22;37034;47.886;-3.904;2023-08-24T14:16:57;31.20;85.70
51007;DHT22;37034;47.886;-3.904;2023-08-24T14:19:23;31.10;86.10
51007;DHT22;37034;47.886;-3.904;2023-08-24T14:21:49;31.00;85.90
51007;DHT22;37034;47.886;-3.904;2023-08-24T14:24:15;31.00;85.90
51007;DHT22;37034;47.886;-3.904;2023-08-24T14:26:40;30.90;85.50
51007;DHT22;37034;47.886;-3.904;2023-08-24T14:29:11;30.80;85.20
51007;DHT22;37034;47.886;-3.904;2023-08-24T14:31:37;30.50;85.90
51007;DHT22;37034;47.886;-3.904;2023-08-24T14:34:02;30.50;85.80
51007;DHT22;37034;47.886;-3.904;2023-08-24T14:36:29;30.50;85.30
51007;DHT22;37034;47.886;-3.904;2023-08-24T14:38:54;30.10;85.20
51007;DHT22;37034;47.886;-3.904;2023-08-24T14:41:20;30.10;87.00
51007;DHT22;37034;47.886;-3.904;2023-08-24T14:43:46;30.30;86.00
51007;DHT22;37034;47.886;-3.904;2023-08-24T14:46:13;30.40;86.10
51007;DHT22;37034;47.886;-3.904;2023-08-24T14:48:38;30.30;85.00
51007;DHT22;37034;47.886;-3.904;2023-08-24T14:51:04;30.10;85.90
51007;DHT22;37034;47.886;-3.904;2023-08-24T14:53:30;30.20;86.10
51007;DHT22;37034;47.886;-3.904;2023-08-24T14:55:56;30.10;85.20
51007;DHT22;37034;47.886;-3.904;2023-08-24T14:58:23;30.00;85.90
51007;DHT22;37034;47.886;-3.904;2023-08-24T15:00:49;29.90;85.70
51007;DHT22;37034;47.886;-3.904;2023-08-24T15:03:16;30.10;86.10
51007;DHT22;37034;47.886;-3.904;2023-08-24T15:05:46;30.20;85.10
51007;DHT22;37034;47.886;-3.904;2023-08-24T15:08:13;30.10;84.20
51007;DHT22;37034;47.886;-3.904;2023-08-24T15:10:39;30.10;84.20
51007;DHT22;37034;47.886;-3.904;2023-08-24T15:13:05;29.80;83.70
51007;DHT22;37034;47.886;-3.904;2023-08-24T15:15:31;29.80;83.60
51007;DHT22;37034;47.886;-3.904;2023-08-24T15:17:56;29.80;82.80
51007;DHT22;37034;47.886;-3.904;2023-08-24T15:20:22;29.60;82.80
51007;DHT22;37034;47.886;-3.904;2023-08-24T15:22:48;29.40;82.30
51007;DHT22;37034;47.886;-3.904;2023-08-24T15:25:14;28.90;82.00
51007;DHT22;37034;47.886;-3.904;2023-08-24T15:27:39;28.80;82.60
51007;DHT22;37034;47.886;-3.904;2023-08-24T15:30:05;28.80;81.40